createdAt,value
2022-10-04T00:00:41.644Z,70.78
2022-10-04T00:03:30.155Z,70.96
2022-10-04T00:06:00.300Z,71.45
2022-10-04T00:08:37.144Z,72.23
2022-10-04T00:11:14.735Z,72.33
2022-10-04T00:13:47.013Z,71.24
2022-10-04T00:16:21.918Z,71.07
2022-10-04T00:18:48.497Z,71.57
2022-10-04T00:21:15.045Z,71.60
2022-10-04T00:23:44.417Z,71.44
2022-10-04T00:26:22.883Z,71.13
2022-10-04T00:28:50.090Z,71.16
2022-10-04T00:31:19.432Z,71.62
2022-10-04T00:33:47.466Z,72.00
2022-10-04T00:36:25.631Z,72.43
2022-10-04T00:39:04.772Z,71.87
2022-10-04T00:41:37.273Z,72.29
2022-10-04T00:44:09.165Z,72.74
2022-10-04T00:46:40.592Z,72.39
2022-10-04T00:49:09.285Z,72.10
2022-10-04T00:51:52.532Z,71.92
2022-10-04T00:54:42.085Z,71.39
2022-10-04T00:57:17.967Z,71.41
2022-10-04T00:59:47.230Z,71.84
2022-10-04T01:02:33.695Z,71.29
2022-10-04T01:05:10.716Z,71.27
2022-10-04T01:07:51.427Z,71.01
2022-10-04T01:10:45.847Z,71.00
2022-10-04T01:13:21.242Z,71.36
2022-10-04T01:15:56.898Z,71.76
2022-10-04T01:18:23.225Z,71.79
2022-10-04T01:20:54.568Z,72.12
2022-10-04T01:23:41.709Z,72.13
2022-10-04T01:26:26.423Z,72.41
2022-10-04T01:28:53.327Z,72.49
2022-10-04T01:31:21.399Z,72.67
2022-10-04T01:33:48.473Z,72.18
2022-10-04T01:36:15.333Z,72.16
2022-10-04T01:38:41.928Z,72.08
2022-10-04T01:41:10.806Z,72.23
2022-10-04T01:43:42.635Z,71.68
2022-10-04T01:46:22.361Z,71.12
2022-10-04T01:48:48.836Z,71.22
2022-10-04T01:51:21.359Z,71.27
2022-10-04T01:53:54.395Z,71.16
2022-10-04T01:56:26.654Z,71.93
2022-10-04T01:59:06.261Z,72.19
2022-10-04T02:01:38.664Z,72.15
2022-10-04T02:04:31.857Z,72.29
2022-10-04T02:07:00.906Z,71.63
2022-10-04T02:09:32.005Z,71.75
2022-10-04T02:11:59.617Z,71.37
2022-10-04T02:14:31.999Z,71.57
2022-10-04T02:17:01.876Z,72.25
2022-10-04T02:19:35.392Z,71.68
2022-10-04T02:22:07.077Z,71.79
2022-10-04T02:24:37.087Z,71.65
2022-10-04T02:27:03.633Z,71.52
2022-10-04T02:29:30.023Z,72.00
2022-10-04T02:32:15.175Z,72.58
2022-10-04T02:34:41.888Z,72.69
2022-10-04T02:37:08.822Z,72.81
2022-10-04T02:39:40.670Z,73.44
2022-10-04T02:42:20.249Z,73.21
2022-10-04T02:44:57.003Z,73.57
2022-10-04T02:47:29.326Z,74.05
2022-10-04T02:50:01.677Z,73.49
2022-10-04T02:52:46.417Z,72.90
2022-10-04T02:55:15.646Z,73.09
2022-10-04T02:57:43.583Z,73.25
2022-10-04T03:00:19.302Z,72.74
2022-10-04T03:03:23.511Z,73.16
2022-10-04T03:06:06.368Z,73.15
2022-10-04T03:08:44.162Z,72.91
2022-10-04T03:11:13.930Z,72.62
2022-10-04T03:13:44.825Z,73.31
2022-10-04T03:16:11.391Z,73.93
2022-10-04T03:18:38.164Z,74.27
2022-10-04T03:21:12.058Z,73.68
2022-10-04T03:23:39.706Z,73.67
2022-10-04T03:26:19.079Z,72.90
2022-10-04T03:28:46.166Z,73.26
2022-10-04T03:31:14.496Z,73.11
2022-10-04T03:33:43.219Z,72.54
2022-10-04T03:36:14.963Z,72.90
2022-10-04T03:38:41.339Z,72.95
2022-10-04T03:41:11.550Z,72.98
2022-10-04T03:43:44.174Z,73.26
2022-10-04T03:46:12.704Z,72.82
2022-10-04T03:48:51.146Z,73.29
2022-10-04T03:51:21.966Z,72.99
2022-10-04T03:53:52.168Z,73.25
2022-10-04T03:56:35.229Z,73.00
2022-10-04T03:59:06.349Z,72.35
2022-10-04T04:01:42.786Z,72.95
2022-10-04T04:04:17.885Z,73.40
2022-10-04T04:06:54.279Z,72.85
2022-10-04T04:09:35.406Z,72.99
2022-10-04T04:12:06.314Z,73.00
2022-10-04T04:14:32.798Z,73.04
2022-10-04T04:17:25.674Z,72.89
2022-10-04T04:19:54.830Z,73.34
2022-10-04T04:22:21.578Z,72.98
2022-10-04T04:24:49.619Z,73.01
2022-10-04T04:27:18.053Z,73.30
2022-10-04T04:29:50.306Z,73.35
2022-10-04T04:32:34.839Z,73.20
2022-10-04T04:35:10.090Z,73.37
2022-10-04T04:37:37.919Z,73.74
2022-10-04T04:40:22.453Z,73.74
2022-10-04T04:42:49.897Z,72.62
2022-10-04T04:45:22.731Z,72.22
2022-10-04T04:47:54.046Z,71.87
2022-10-04T04:50:24.450Z,71.47
2022-10-04T04:52:55.315Z,71.12
2022-10-04T04:55:25.942Z,70.21
2022-10-04T04:57:55.996Z,70.45
2022-10-04T05:00:28.574Z,70.33
2022-10-04T05:02:58.846Z,70.52
2022-10-04T05:05:33.430Z,70.14
2022-10-04T05:08:29.473Z,70.24
2022-10-04T05:11:08.260Z,70.26
2022-10-04T05:13:46.327Z,69.71
2022-10-04T05:16:20.027Z,70.93
2022-10-04T05:18:46.985Z,70.95
2022-10-04T05:21:29.979Z,72.26
2022-10-04T05:23:58.865Z,72.85
2022-10-04T05:26:28.967Z,72.59
2022-10-04T05:28:59.127Z,71.75
2022-10-04T05:31:33.053Z,71.63
2022-10-04T05:33:59.603Z,71.34
2022-10-04T05:36:52.846Z,71.59
2022-10-04T05:39:25.348Z,72.03
2022-10-04T05:42:10.027Z,72.44
2022-10-04T05:44:44.703Z,72.48
2022-10-04T05:47:14.230Z,73.01
2022-10-04T05:49:44.311Z,72.76
2022-10-04T05:52:38.525Z,73.06
2022-10-04T05:55:26.203Z,73.69
2022-10-04T05:58:19.057Z,72.80
2022-10-04T06:01:03.939Z,72.18
2022-10-04T06:03:48.137Z,72.48
2022-10-04T06:06:33.034Z,72.09
2022-10-04T06:09:09.148Z,71.53
2022-10-04T06:12:17.240Z,71.56
2022-10-04T06:15:17.295Z,70.29
2022-10-04T06:17:52.793Z,70.99
2022-10-04T06:20:35.935Z,71.04
2022-10-04T06:23:12.095Z,70.85
2022-10-04T06:25:47.051Z,70.75
2022-10-04T06:28:24.343Z,71.14
2022-10-04T06:31:18.502Z,70.96
2022-10-04T06:34:06.633Z,70.31
2022-10-04T06:36:55.252Z,70.23
2022-10-04T06:39:24.559Z,70.32
2022-10-04T06:42:20.778Z,70.38
2022-10-04T06:44:56.373Z,70.63
2022-10-04T06:48:00.960Z,71.04
2022-10-04T06:50:45.193Z,70.89
2022-10-04T06:53:42.083Z,70.91
2022-10-04T06:56:24.597Z,70.39
2022-10-04T06:59:19.048Z,70.90
2022-10-04T07:01:51.778Z,70.64
2022-10-04T07:04:55.755Z,70.78
2022-10-04T07:07:35.393Z,70.84
2022-10-04T07:10:30.953Z,70.91
2022-10-04T07:13:03.400Z,70.65
2022-10-04T07:15:50.435Z,70.99
2022-10-04T07:18:26.976Z,70.99
2022-10-04T07:21:15.597Z,69.95
2022-10-04T07:23:51.700Z,70.93
2022-10-04T07:26:51.934Z,70.62
2022-10-04T07:29:30.919Z,70.78
2022-10-04T07:32:21.173Z,70.67
2022-10-04T07:35:04.168Z,70.47
2022-10-04T07:37:36.491Z,69.94
2022-10-04T07:40:29.224Z,70.08
2022-10-04T07:43:05.122Z,70.71
2022-10-04T07:45:40.211Z,70.25
2022-10-04T07:48:15.912Z,69.80
2022-10-04T07:51:01.295Z,69.56
2022-10-04T07:53:30.061Z,68.92
2022-10-04T07:56:11.010Z,69.02
2022-10-04T07:58:45.996Z,68.97
2022-10-04T08:01:25.921Z,68.61
2022-10-04T08:04:11.286Z,68.68
2022-10-04T08:06:59.746Z,69.43
2022-10-04T08:09:49.171Z,70.28
2022-10-04T08:12:19.301Z,70.19
2022-10-04T08:14:52.383Z,70.10
2022-10-04T08:17:39.438Z,69.77
2022-10-04T08:20:45.319Z,70.04
2022-10-04T08:23:29.145Z,70.49
2022-10-04T08:26:12.647Z,70.87
2022-10-04T08:29:01.650Z,71.19
2022-10-04T08:31:58.291Z,70.74
2022-10-04T08:34:33.219Z,70.63
2022-10-04T08:37:11.280Z,70.72
2022-10-04T08:39:52.868Z,70.41
2022-10-04T08:42:48.192Z,69.36
2022-10-04T08:45:38.112Z,69.13
2022-10-04T08:48:26.279Z,69.05
2022-10-04T08:51:28.174Z,68.93
2022-10-04T08:54:35.483Z,69.00
2022-10-04T08:57:15.632Z,69.03
2022-10-04T09:00:10.528Z,68.64
2022-10-04T09:03:07.356Z,69.02
2022-10-04T09:05:56.712Z,70.02
2022-10-04T09:09:00.453Z,70.29
2022-10-04T09:11:50.959Z,69.38
2022-10-04T09:14:45.733Z,69.11
2022-10-04T09:17:23.069Z,68.55
2022-10-04T09:20:26.160Z,68.23
2022-10-04T09:22:57.096Z,66.83
2022-10-04T09:25:41.786Z,67.68
2022-10-04T09:28:26.982Z,66.90
2022-10-04T09:30:56.289Z,66.37
2022-10-04T09:33:33.402Z,65.87
2022-10-04T09:36:19.304Z,65.17
2022-10-04T09:39:29.071Z,64.60
2022-10-04T09:42:26.850Z,64.14
2022-10-04T09:45:40.668Z,64.11
2022-10-04T09:48:35.226Z,62.81
2022-10-04T09:51:29.188Z,63.04
2022-10-04T09:54:11.732Z,63.06
2022-10-04T09:56:56.760Z,62.38
2022-10-04T09:59:44.637Z,60.10
2022-10-04T10:02:38.545Z,60.02
2022-10-04T10:05:26.849Z,58.90
2022-10-04T10:08:05.991Z,57.80
2022-10-04T10:11:19.969Z,58.31
2022-10-04T10:14:01.150Z,59.46
2022-10-04T10:16:49.635Z,57.43
2022-10-04T10:20:00.083Z,57.94
2022-10-04T10:23:00.466Z,57.68
2022-10-04T10:25:59.164Z,54.32
2022-10-04T10:28:45.836Z,44.08
2022-10-04T10:31:24.113Z,40.46
2022-10-04T10:34:27.646Z,38.04
2022-10-04T10:37:02.970Z,37.62
2022-10-04T10:39:47.890Z,37.11
2022-10-04T10:42:52.018Z,40.02
2022-10-04T10:45:37.990Z,43.73
2022-10-04T10:48:40.309Z,45.53
2022-10-04T10:51:18.504Z,47.27
2022-10-04T10:54:12.473Z,46.13
2022-10-04T10:56:51.618Z,48.24
2022-10-04T10:59:49.904Z,47.99
2022-10-04T11:02:50.336Z,49.07
2022-10-04T11:05:36.719Z,48.66
2022-10-04T11:08:16.274Z,46.85
2022-10-04T11:10:54.736Z,46.92
2022-10-04T11:13:51.441Z,47.87
2022-10-04T11:16:43.535Z,44.73
2022-10-04T11:19:36.447Z,44.20
2022-10-04T11:22:48.982Z,45.17
2022-10-04T11:25:36.048Z,47.02
2022-10-04T11:28:18.265Z,47.50
2022-10-04T11:31:23.830Z,48.04
2022-10-04T11:34:16.545Z,49.13
2022-10-04T11:36:56.227Z,49.41
2022-10-04T11:40:09.940Z,47.68
2022-10-04T11:43:20.110Z,47.69
2022-10-04T11:46:13.236Z,47.99
2022-10-04T11:48:58.850Z,48.62
2022-10-04T11:51:48.615Z,47.62
2022-10-04T11:54:18.027Z,47.80
2022-10-04T11:57:12.272Z,46.56
2022-10-04T11:59:55.349Z,46.46
2022-10-04T12:02:41.206Z,45.97
2022-10-04T12:05:35.598Z,41.30
2022-10-04T12:08:33.434Z,42.91
2022-10-04T12:10:59.719Z,44.54
2022-10-04T12:13:37.874Z,44.88
2022-10-04T12:16:29.739Z,42.80
2022-10-04T12:19:27.407Z,40.92
2022-10-04T12:22:16.122Z,41.73
2022-10-04T12:25:37.428Z,43.41
2022-10-04T12:28:27.038Z,42.59
2022-10-04T12:31:05.634Z,43.96
2022-10-04T12:33:50.156Z,40.66
2022-10-04T12:36:26.142Z,42.58
2022-10-04T12:39:23.209Z,44.49
2022-10-04T12:42:07.833Z,42.87
2022-10-04T12:44:55.062Z,41.92
2022-10-04T12:47:37.256Z,39.68
2022-10-04T12:50:35.466Z,40.09
2022-10-04T12:53:14.545Z,40.24
2022-10-04T12:56:18.977Z,40.82
2022-10-04T12:59:17.161Z,40.00
2022-10-04T13:02:25.097Z,39.61
2022-10-04T13:04:59.124Z,38.66
2022-10-04T13:07:28.571Z,39.01
2022-10-04T13:10:36.753Z,40.20
2022-10-04T13:13:17.491Z,41.28
2022-10-04T13:19:05.951Z,42.56
2022-10-04T13:21:35.001Z,40.36
2022-10-04T13:24:15.354Z,41.69
2022-10-04T13:27:02.882Z,40.34
2022-10-04T13:29:51.222Z,40.50
2022-10-04T13:32:28.087Z,40.58
2022-10-04T13:35:12.464Z,39.35
2022-10-04T13:38:16.246Z,40.25
2022-10-04T13:41:03.363Z,39.31
2022-10-04T13:44:18.333Z,41.54
2022-10-04T13:47:10.598Z,40.88
2022-10-04T13:50:23.655Z,42.08
2022-10-04T13:53:23.258Z,40.89
2022-10-04T13:56:36.557Z,40.10
2022-10-04T13:59:34.518Z,40.68
2022-10-04T14:02:21.713Z,41.09
2022-10-04T14:05:27.579Z,42.12
2022-10-04T14:08:12.187Z,39.96
2022-10-04T14:11:09.519Z,40.89
2022-10-04T14:13:42.974Z,40.37
2022-10-04T14:16:46.527Z,41.27
2022-10-04T14:19:41.914Z,40.51
2022-10-04T14:22:11.657Z,40.07
2022-10-04T14:25:05.257Z,40.77
2022-10-04T14:28:13.787Z,39.56
2022-10-04T14:30:59.059Z,40.06
2022-10-04T14:33:59.278Z,40.48
2022-10-04T14:37:09.447Z,40.11
2022-10-04T14:39:53.484Z,40.51
2022-10-04T14:42:46.772Z,39.56
2022-10-04T14:45:42.655Z,40.20
2022-10-04T14:48:27.515Z,41.75
2022-10-04T14:51:19.390Z,40.48
2022-10-04T14:54:00.782Z,40.85
2022-10-04T14:56:43.956Z,41.04
2022-10-04T14:59:22.554Z,41.63
2022-10-04T15:02:01.332Z,41.69
2022-10-04T15:05:08.162Z,41.07
2022-10-04T15:07:52.075Z,42.51
2022-10-04T15:10:33.028Z,41.25
2022-10-04T15:13:19.881Z,41.42
2022-10-04T15:15:56.611Z,42.05
2022-10-04T15:18:33.789Z,42.51
2022-10-04T15:21:19.989Z,42.46
2022-10-04T15:23:54.513Z,42.17
2022-10-04T15:26:20.785Z,42.86
2022-10-04T15:28:50.240Z,42.81
2022-10-04T15:31:34.443Z,43.25
2022-10-04T15:34:13.752Z,43.94
2022-10-04T15:37:02.924Z,43.52
2022-10-04T15:39:58.390Z,43.65
2022-10-04T15:42:29.169Z,43.65
2022-10-04T15:45:30.100Z,42.93
2022-10-04T15:47:56.618Z,43.43
2022-10-04T15:50:30.624Z,43.09
2022-10-04T15:53:34.664Z,43.38
2022-10-04T15:56:40.182Z,42.21
2022-10-04T15:59:33.589Z,42.78
2022-10-04T16:02:17.218Z,42.81
2022-10-04T16:05:03.311Z,43.83
2022-10-04T16:07:52.280Z,44.72
2022-10-04T16:10:35.294Z,45.97
2022-10-04T16:13:16.933Z,46.76
2022-10-04T16:15:49.462Z,47.86
2022-10-04T16:18:25.103Z,48.05
2022-10-04T16:20:57.685Z,47.59
2022-10-04T16:23:32.214Z,49.04
2022-10-04T16:26:10.350Z,50.40
2022-10-04T16:28:58.155Z,51.01
2022-10-04T16:31:50.565Z,51.76
2022-10-04T16:34:27.061Z,51.83
2022-10-04T16:37:05.102Z,52.58
2022-10-04T16:39:59.250Z,52.98
2022-10-04T16:42:34.833Z,52.84
2022-10-04T16:45:39.818Z,53.81
2022-10-04T16:48:23.350Z,54.66
2022-10-04T16:51:05.341Z,54.58
2022-10-04T16:53:49.411Z,54.97
2022-10-04T16:56:24.718Z,54.74
2022-10-04T16:58:51.059Z,56.10
2022-10-04T17:01:21.030Z,55.88
2022-10-04T17:04:25.517Z,56.23
2022-10-04T17:07:12.072Z,56.53
2022-10-04T17:09:52.885Z,56.66
2022-10-04T17:12:45.779Z,56.52
2022-10-04T17:15:15.060Z,56.95
2022-10-04T17:17:54.684Z,56.86
2022-10-04T17:20:45.827Z,56.30
2022-10-04T17:23:30.435Z,56.29
2022-10-04T17:26:05.933Z,57.28
2022-10-04T17:28:57.165Z,58.99
2022-10-04T17:31:39.776Z,59.04
2022-10-04T17:34:28.540Z,58.33
2022-10-04T17:37:05.915Z,58.38
2022-10-04T17:40:08.672Z,58.48
2022-10-04T17:42:44.454Z,57.88
2022-10-04T17:45:20.097Z,58.15
2022-10-04T17:48:32.931Z,58.21
2022-10-04T17:51:20.992Z,58.59
2022-10-04T17:54:13.154Z,58.59
2022-10-04T17:56:45.381Z,58.77
2022-10-04T17:59:30.824Z,58.78
2022-10-04T18:02:10.979Z,58.42
2022-10-04T18:04:48.645Z,59.01
2022-10-04T18:07:20.960Z,58.54
2022-10-04T18:10:17.622Z,58.36
2022-10-04T18:12:57.882Z,58.70
2022-10-04T18:15:31.957Z,58.32
2022-10-04T18:18:07.588Z,58.60
2022-10-04T18:20:37.607Z,58.63
2022-10-04T18:23:28.214Z,58.86
2022-10-04T18:25:59.325Z,59.14
2022-10-04T18:28:25.930Z,59.72
2022-10-04T18:30:59.092Z,58.98
2022-10-04T18:33:35.491Z,58.82
2022-10-04T18:36:18.923Z,59.32
2022-10-04T18:38:58.281Z,59.29
2022-10-04T18:41:44.894Z,59.94
2022-10-04T18:44:16.668Z,59.72
2022-10-04T18:46:47.958Z,59.34
2022-10-04T18:49:25.395Z,59.01
2022-10-04T18:52:07.658Z,58.96
2022-10-04T18:55:13.129Z,59.48
2022-10-04T18:58:03.252Z,59.62
2022-10-04T19:00:59.068Z,59.85
2022-10-04T19:03:40.431Z,61.05
2022-10-04T19:06:32.115Z,60.57
2022-10-04T19:09:04.309Z,60.65
2022-10-04T19:11:47.367Z,60.35
2022-10-04T19:14:31.466Z,60.96
2022-10-04T19:17:05.246Z,60.35
2022-10-04T19:19:51.081Z,61.31
2022-10-04T19:22:50.598Z,61.97
2022-10-04T19:25:35.157Z,62.18
2022-10-04T19:28:16.703Z,62.74
2022-10-04T19:31:07.007Z,62.38
2022-10-04T19:33:43.202Z,62.09
2022-10-04T19:36:31.301Z,62.20
2022-10-04T19:39:15.879Z,60.90
2022-10-04T19:42:04.810Z,61.31
2022-10-04T19:44:43.438Z,61.33
2022-10-04T19:47:33.558Z,61.04
2022-10-04T19:50:17.615Z,61.78
2022-10-04T19:52:49.357Z,62.05
2022-10-04T19:55:29.344Z,60.77
2022-10-04T19:58:06.511Z,61.83
2022-10-04T20:00:35.615Z,61.80
2022-10-04T20:03:02.393Z,60.92
2022-10-04T20:05:29.099Z,62.05
2022-10-04T20:08:04.899Z,61.68
2022-10-04T20:10:36.079Z,61.77
2022-10-04T20:13:23.507Z,61.32
2022-10-04T20:15:52.368Z,62.09
2022-10-04T20:18:34.414Z,61.57
2022-10-04T20:21:01.310Z,61.98
2022-10-04T20:23:40.074Z,61.63
2022-10-04T20:26:10.903Z,61.52
2022-10-04T20:28:41.450Z,61.89
2022-10-04T20:31:32.939Z,62.08
2022-10-04T20:34:23.096Z,61.59
2022-10-04T20:36:51.656Z,62.60
2022-10-04T20:39:50.423Z,62.03
2022-10-04T20:42:36.951Z,63.26
2022-10-04T20:45:09.209Z,62.46
2022-10-04T20:47:39.805Z,62.61
2022-10-04T20:50:15.184Z,62.32
2022-10-04T20:52:47.587Z,62.04
2022-10-04T20:55:20.435Z,61.93
2022-10-04T20:57:47.395Z,62.37
2022-10-04T21:00:22.387Z,62.26
2022-10-04T21:02:49.900Z,62.76
2022-10-04T21:05:24.598Z,61.95
2022-10-04T21:08:13.565Z,61.50
2022-10-04T21:10:59.869Z,61.32
2022-10-04T21:13:50.517Z,61.79
2022-10-04T21:16:34.053Z,61.45
2022-10-04T21:19:47.015Z,62.33
2022-10-04T21:22:16.561Z,62.67
2022-10-04T21:24:54.346Z,62.83
2022-10-04T21:27:26.876Z,62.88
2022-10-04T21:29:53.657Z,62.20
2022-10-04T21:32:20.991Z,61.58
2022-10-04T21:34:55.051Z,61.79
2022-10-04T21:37:21.975Z,61.35
2022-10-04T21:39:48.326Z,62.17
2022-10-04T21:42:14.743Z,61.09
2022-10-04T21:44:41.178Z,61.77
2022-10-04T21:47:07.546Z,61.73
2022-10-04T21:49:33.937Z,61.49
2022-10-04T21:52:00.301Z,61.81
2022-10-04T21:54:26.615Z,62.01
2022-10-04T21:56:54.008Z,61.62
2022-10-04T21:59:21.167Z,62.42
2022-10-04T22:01:47.945Z,62.75
2022-10-04T22:04:14.351Z,62.49
2022-10-04T22:06:41.298Z,61.90
2022-10-04T22:09:08.211Z,61.06
2022-10-04T22:11:34.599Z,62.45
2022-10-04T22:14:00.924Z,61.55
2022-10-04T22:16:27.450Z,61.56
2022-10-04T22:18:54.409Z,61.54
2022-10-04T22:21:20.909Z,61.38
2022-10-04T22:23:47.358Z,61.34
2022-10-04T22:26:19.286Z,61.96
2022-10-04T22:28:56.191Z,63.48
2022-10-04T22:31:26.870Z,63.43
2022-10-04T22:33:54.101Z,64.46
2022-10-04T22:36:26.955Z,64.43
2022-10-04T22:38:58.911Z,64.54
2022-10-04T22:41:31.942Z,64.65
2022-10-04T22:44:02.799Z,64.91
2022-10-04T22:46:36.067Z,64.51
2022-10-04T22:49:03.160Z,64.26
2022-10-04T22:51:29.835Z,63.78
2022-10-04T22:53:56.433Z,64.33
2022-10-04T22:56:22.855Z,65.37
2022-10-04T22:58:49.225Z,65.38
2022-10-04T23:01:18.338Z,65.61
2022-10-04T23:03:47.036Z,65.94
2022-10-04T23:06:14.311Z,65.89
2022-10-04T23:08:44.664Z,66.27
2022-10-04T23:11:11.605Z,66.24
2022-10-04T23:13:38.066Z,65.75
2022-10-04T23:16:23.187Z,66.07
2022-10-04T23:18:50.656Z,66.19
2022-10-04T23:21:23.836Z,66.88
2022-10-04T23:23:52.979Z,66.96
2022-10-04T23:26:24.988Z,66.65
2022-10-04T23:28:51.801Z,66.74
2022-10-04T23:31:27.345Z,67.26
2022-10-04T23:33:56.751Z,67.04
2022-10-04T23:36:23.372Z,66.86
2022-10-04T23:38:56.338Z,66.75
2022-10-04T23:41:23.148Z,66.61
2022-10-04T23:43:49.496Z,67.05
2022-10-04T23:46:19.326Z,67.18
2022-10-04T23:48:46.824Z,66.43
2022-10-04T23:51:16.753Z,66.06
2022-10-04T23:53:46.346Z,65.85
2022-10-04T23:56:20.049Z,65.93
2022-10-04T23:58:46.970Z,65.78
